createdAt,value
2022-10-07T00:01:19.747Z,101231.84
2022-10-07T00:03:49.533Z,101230.63
2022-10-07T00:06:21.236Z,101225.91
2022-10-07T00:08:52.877Z,101215.94
2022-10-07T00:11:24.056Z,101222.59
2022-10-07T00:13:55.224Z,101220.34
2022-10-07T00:16:26.934Z,101221.25
2022-10-07T00:18:59.000Z,101219.06
2022-10-07T00:21:31.321Z,101211.47
2022-10-07T00:24:00.232Z,101210.22
2022-10-07T00:26:31.697Z,101201.69
2022-10-07T00:29:00.510Z,101200.53
2022-10-07T00:31:31.840Z,101201.34
2022-10-07T00:34:02.995Z,101193.25
2022-10-07T00:36:33.946Z,101198.44
2022-10-07T00:39:06.311Z,101200.63
2022-10-07T00:41:38.665Z,101196.16
2022-10-07T00:44:41.477Z,101194.69
2022-10-07T00:47:23.963Z,101198.63
2022-10-07T00:49:59.496Z,101194.69
2022-10-07T00:52:32.464Z,101197.47
2022-10-07T00:55:05.363Z,101190.28
2022-10-07T00:57:35.722Z,101189.09
2022-10-07T01:00:08.230Z,101195.69
2022-10-07T01:02:38.663Z,101192.16
2022-10-07T01:05:14.186Z,101188.88
2022-10-07T01:07:47.292Z,101177.78
2022-10-07T01:10:20.349Z,101178.88
2022-10-07T01:13:05.515Z,101184.59
2022-10-07T01:15:40.856Z,101177.78
2022-10-07T01:18:22.812Z,101171.47
2022-10-07T01:20:59.373Z,101170.50
2022-10-07T01:23:54.468Z,101167.16
2022-10-07T01:26:52.285Z,101169.34
2022-10-07T01:29:25.858Z,101159.03
2022-10-07T01:32:03.218Z,101152.81
2022-10-07T01:34:34.445Z,101159.13
2022-10-07T01:37:06.924Z,101152.97
2022-10-07T01:39:42.330Z,101150.59
2022-10-07T01:42:12.939Z,101149.13
2022-10-07T01:44:42.308Z,101142.59
2022-10-07T01:47:12.597Z,101142.91
2022-10-07T01:49:42.479Z,101145.19
2022-10-07T01:52:33.053Z,101130.22
2022-10-07T01:55:29.159Z,101127.81
2022-10-07T01:58:11.465Z,101120.31
2022-10-07T02:00:47.796Z,101121.25
2022-10-07T02:03:57.697Z,101116.47
2022-10-07T02:06:39.293Z,101113.03
2022-10-07T02:09:21.747Z,101106.56
2022-10-07T02:11:58.775Z,101108.22
2022-10-07T02:14:41.331Z,101108.84
2022-10-07T02:17:18.835Z,101108.84
2022-10-07T02:19:53.290Z,101105.09
2022-10-07T02:22:26.590Z,101095.22
2022-10-07T02:24:59.164Z,101098.88
2022-10-07T02:27:33.826Z,101091.38
2022-10-07T02:30:09.613Z,101089.28
2022-10-07T02:32:40.865Z,101088.03
2022-10-07T02:35:18.794Z,101082.91
2022-10-07T02:37:50.380Z,101072.84
2022-10-07T02:40:19.082Z,101071.69
2022-10-07T02:42:56.650Z,101066.06
2022-10-07T02:45:35.035Z,101076.13
2022-10-07T02:48:11.746Z,101070.94
2022-10-07T02:50:44.200Z,101062.44
2022-10-07T02:53:14.585Z,101066.59
2022-10-07T02:55:44.829Z,101054.22
2022-10-07T02:58:18.424Z,101049.75
2022-10-07T03:00:52.987Z,101054.44
2022-10-07T03:03:22.196Z,101052.56
2022-10-07T03:05:57.149Z,101041.72
2022-10-07T03:08:26.503Z,101044.97
2022-10-07T03:10:54.840Z,101046.31
2022-10-07T03:13:24.811Z,101046.63
2022-10-07T03:15:58.957Z,101038.84
2022-10-07T03:18:29.542Z,101044.44
2022-10-07T03:21:22.837Z,101037.28
2022-10-07T03:23:54.232Z,101038.41
2022-10-07T03:26:26.155Z,101033.41
2022-10-07T03:28:55.235Z,101034.47
2022-10-07T03:31:27.595Z,101039.44
2022-10-07T03:33:59.634Z,101040.06
2022-10-07T03:36:29.354Z,101040.38
2022-10-07T03:38:58.724Z,101041.31
2022-10-07T03:41:27.533Z,101033.81
2022-10-07T03:43:59.805Z,101038.31
2022-10-07T03:46:31.327Z,101037.47
2022-10-07T03:49:00.035Z,101023.22
2022-10-07T03:51:30.448Z,101025.38
2022-10-07T03:54:00.365Z,101020.59
2022-10-07T03:56:32.868Z,101022.50
2022-10-07T03:59:02.126Z,101016.03
2022-10-07T04:01:33.548Z,101012.09
2022-10-07T04:04:02.874Z,101014.06
2022-10-07T04:06:38.027Z,101018.13
2022-10-07T04:09:13.033Z,101016.88
2022-10-07T04:11:42.291Z,101013.41
2022-10-07T04:14:11.238Z,101020.72
2022-10-07T04:16:42.708Z,101013.63
2022-10-07T04:19:14.168Z,101008.63
2022-10-07T04:21:44.383Z,100999.97
2022-10-07T04:24:13.229Z,100996.38
2022-10-07T04:26:41.788Z,100993.66
2022-10-07T04:29:10.231Z,100994.38
2022-10-07T04:31:38.700Z,100999.38
2022-10-07T04:34:08.650Z,100995.63
2022-10-07T04:36:41.313Z,100995.66
2022-10-07T04:39:13.468Z,100990.88
2022-10-07T04:41:48.304Z,100991.88
2022-10-07T04:44:21.807Z,100987.97
2022-10-07T04:46:57.019Z,100988.75
2022-10-07T04:49:29.623Z,100989.50
2022-10-07T04:52:00.187Z,100989.59
2022-10-07T04:54:34.350Z,100992.72
2022-10-07T04:57:03.016Z,100981.91
2022-10-07T04:59:32.211Z,100985.16
2022-10-07T05:02:02.047Z,100971.72
2022-10-07T05:04:35.051Z,100974.41
2022-10-07T05:07:04.584Z,100967.41
2022-10-07T05:09:34.242Z,100972.13
2022-10-07T05:12:02.612Z,100977.53
2022-10-07T05:14:32.835Z,100969.00
2022-10-07T05:17:01.551Z,100964.44
2022-10-07T05:19:36.403Z,100966.09
2022-10-07T05:22:05.056Z,100963.72
2022-10-07T05:24:33.931Z,100961.59
2022-10-07T05:27:03.589Z,100961.31
2022-10-07T05:29:31.949Z,100963.41
2022-10-07T05:32:04.755Z,100963.06
2022-10-07T05:34:35.737Z,100967.13
2022-10-07T05:37:04.273Z,100964.31
2022-10-07T05:39:33.510Z,100966.94
2022-10-07T05:42:13.734Z,100963.00
2022-10-07T05:44:48.836Z,100958.00
2022-10-07T05:47:18.821Z,100961.94
2022-10-07T05:49:49.035Z,100946.75
2022-10-07T05:52:19.481Z,100954.13
2022-10-07T05:54:47.869Z,100949.22
2022-10-07T05:57:17.018Z,100952.56
2022-10-07T05:59:46.010Z,100946.00
2022-10-07T06:02:18.808Z,100945.94
2022-10-07T06:04:50.473Z,100949.03
2022-10-07T06:07:21.995Z,100946.13
2022-10-07T06:10:11.746Z,100944.88
2022-10-07T06:12:59.929Z,100939.41
2022-10-07T06:15:28.447Z,100932.53
2022-10-07T06:17:57.547Z,100945.75
2022-10-07T06:20:28.101Z,100936.19
2022-10-07T06:22:58.995Z,100940.13
2022-10-07T06:25:28.940Z,100933.56
2022-10-07T06:28:00.009Z,100942.50
2022-10-07T06:30:29.428Z,100947.50
2022-10-07T06:32:59.808Z,100944.50
2022-10-07T06:35:30.542Z,100945.63
2022-10-07T06:37:59.603Z,100943.50
2022-10-07T06:40:28.312Z,100944.22
2022-10-07T06:42:56.797Z,100945.78
2022-10-07T06:45:32.996Z,100943.06
2022-10-07T06:48:02.879Z,100952.53
2022-10-07T06:50:33.609Z,100944.16
2022-10-07T06:53:02.394Z,100949.16
2022-10-07T06:55:33.721Z,100950.66
2022-10-07T06:58:07.803Z,100954.41
2022-10-07T07:00:40.308Z,100947.53
2022-10-07T07:03:10.276Z,100944.25
2022-10-07T07:05:45.325Z,100947.97
2022-10-07T07:08:18.201Z,100952.41
2022-10-07T07:10:47.147Z,100943.53
2022-10-07T07:13:16.708Z,100945.97
2022-10-07T07:15:55.955Z,100948.25
2022-10-07T07:18:25.361Z,100941.72
2022-10-07T07:20:55.893Z,100938.97
2022-10-07T07:23:26.170Z,100939.19
2022-10-07T07:25:54.514Z,100937.81
2022-10-07T07:28:23.331Z,100930.22
2022-10-07T07:30:51.794Z,100923.53
2022-10-07T07:33:20.818Z,100934.41
2022-10-07T07:35:50.451Z,100930.44
2022-10-07T07:38:24.769Z,100920.13
2022-10-07T07:40:55.035Z,100923.97
2022-10-07T07:43:23.682Z,100924.25
2022-10-07T07:45:53.833Z,100912.59
2022-10-07T07:48:22.533Z,100911.91
2022-10-07T07:50:52.266Z,100903.81
2022-10-07T07:53:22.860Z,100911.41
2022-10-07T07:55:56.092Z,100909.34
2022-10-07T07:58:25.827Z,100911.28
2022-10-07T08:01:02.584Z,100913.75
2022-10-07T08:03:31.725Z,100911.28
2022-10-07T08:06:03.224Z,100903.59
2022-10-07T08:08:35.144Z,100905.50
2022-10-07T08:11:11.817Z,100902.34
2022-10-07T08:13:42.478Z,100894.88
2022-10-07T08:16:15.788Z,100902.63
2022-10-07T08:18:47.607Z,100907.03
2022-10-07T08:21:18.635Z,100894.84
2022-10-07T08:23:53.964Z,100896.53
2022-10-07T08:26:22.862Z,100897.47
2022-10-07T08:28:52.031Z,100894.31
2022-10-07T08:31:21.784Z,100893.31
2022-10-07T08:33:51.116Z,100891.66
2022-10-07T08:36:23.037Z,100884.91
2022-10-07T08:38:53.566Z,100879.97
2022-10-07T08:41:45.973Z,100887.34
2022-10-07T08:44:27.291Z,100882.66
2022-10-07T08:47:12.193Z,100877.00
2022-10-07T08:49:55.006Z,100878.72
2022-10-07T08:52:29.442Z,100870.56
2022-10-07T08:55:01.256Z,100872.28
2022-10-07T08:57:51.109Z,100859.00
2022-10-07T09:00:24.926Z,100859.44
2022-10-07T09:03:10.537Z,100853.31
2022-10-07T09:05:44.070Z,100850.28
2022-10-07T09:08:18.888Z,100855.97
2022-10-07T09:10:53.589Z,100845.59
2022-10-07T09:13:27.041Z,100840.34
2022-10-07T09:16:09.975Z,100841.94
2022-10-07T09:18:42.264Z,100842.19
2022-10-07T09:21:28.649Z,100847.41
2022-10-07T09:24:03.228Z,100842.16
2022-10-07T09:26:32.882Z,100837.41
2022-10-07T09:29:01.296Z,100831.84
2022-10-07T09:31:32.695Z,100832.13
2022-10-07T09:34:01.212Z,100831.44
2022-10-07T09:36:29.705Z,100823.53
2022-10-07T09:38:59.110Z,100828.84
2022-10-07T09:41:32.250Z,100821.72
2022-10-07T09:44:07.409Z,100820.38
2022-10-07T09:46:48.808Z,100819.00
2022-10-07T09:49:43.419Z,100822.72
2022-10-07T09:52:22.861Z,100809.94
2022-10-07T09:54:53.477Z,100801.31
2022-10-07T09:57:32.470Z,100801.63
2022-10-07T10:00:27.080Z,100793.06
2022-10-07T10:03:05.494Z,100786.47
2022-10-07T10:05:36.983Z,100788.47
2022-10-07T10:08:20.549Z,100785.25
2022-10-07T10:10:53.386Z,100780.72
2022-10-07T10:13:30.954Z,100787.22
2022-10-07T10:16:02.329Z,100775.97
2022-10-07T10:18:39.187Z,100782.22
2022-10-07T10:21:25.267Z,100774.91
2022-10-07T10:23:56.909Z,100771.00
2022-10-07T10:26:56.627Z,100775.78
2022-10-07T10:29:49.847Z,100769.81
2022-10-07T10:32:57.437Z,100752.53
2022-10-07T10:35:30.102Z,100758.97
2022-10-07T10:38:14.076Z,100755.31
2022-10-07T10:40:52.463Z,100754.03
2022-10-07T10:43:31.633Z,100749.56
2022-10-07T10:46:19.234Z,100748.25
2022-10-07T10:48:57.554Z,100747.81
2022-10-07T10:51:45.926Z,100739.06
2022-10-07T10:54:28.921Z,100736.75
2022-10-07T10:57:06.450Z,100729.00
2022-10-07T11:00:04.581Z,100724.38
2022-10-07T11:03:15.901Z,100718.09
2022-10-07T11:05:47.480Z,100714.59
2022-10-07T11:08:25.306Z,100714.13
2022-10-07T11:10:59.893Z,100711.53
2022-10-07T11:13:37.533Z,100696.78
2022-10-07T11:16:12.495Z,100695.63
2022-10-07T11:18:46.625Z,100686.25
2022-10-07T11:21:25.889Z,100688.09
2022-10-07T11:24:02.534Z,100680.75
2022-10-07T11:26:37.839Z,100680.69
2022-10-07T11:29:19.689Z,100670.00
2022-10-07T11:31:57.562Z,100662.69
2022-10-07T11:34:36.832Z,100655.25
2022-10-07T11:37:15.979Z,100649.00
2022-10-07T11:39:44.799Z,100637.00
2022-10-07T11:42:18.522Z,100634.91
2022-10-07T11:44:57.220Z,100631.84
2022-10-07T11:47:34.087Z,100627.28
2022-10-07T11:50:09.152Z,100621.41
2022-10-07T11:52:46.596Z,100625.41
2022-10-07T11:55:28.888Z,100628.25
2022-10-07T11:58:00.435Z,100611.97
2022-10-07T12:00:31.769Z,100608.44
2022-10-07T12:03:14.032Z,100603.25
2022-10-07T12:06:07.457Z,100614.00
2022-10-07T12:08:41.613Z,100603.06
2022-10-07T12:11:47.350Z,100588.00
2022-10-07T12:14:58.992Z,100588.31
2022-10-07T12:17:30.539Z,100580.22
2022-10-07T12:20:45.714Z,100575.19
2022-10-07T12:23:42.803Z,100557.19
2022-10-07T12:26:51.494Z,100566.50
2022-10-07T12:29:45.968Z,100550.63
2022-10-07T12:33:00.854Z,100546.13
2022-10-07T12:35:54.300Z,100540.06
2022-10-07T12:38:29.087Z,100537.59
2022-10-07T12:41:25.049Z,100526.19
2022-10-07T12:44:06.390Z,100537.34
2022-10-07T12:46:47.697Z,100519.53
2022-10-07T12:49:25.183Z,100511.34
2022-10-07T12:51:55.748Z,100508.84
2022-10-07T12:54:33.252Z,100505.66
2022-10-07T12:57:11.926Z,100505.75
2022-10-07T12:59:52.185Z,100495.09
2022-10-07T13:03:17.504Z,100488.47
2022-10-07T13:06:46.930Z,100485.81
2022-10-07T13:09:51.895Z,100487.13
2022-10-07T13:12:42.199Z,100477.97
2022-10-07T13:15:31.400Z,100469.25
2022-10-07T13:18:10.850Z,100461.25
2022-10-07T13:20:54.980Z,100459.00
2022-10-07T13:23:27.362Z,100458.66
2022-10-07T13:25:59.310Z,100454.63
2022-10-07T13:28:38.963Z,100453.38
2022-10-07T13:31:18.953Z,100442.44
2022-10-07T13:33:47.728Z,100447.41
2022-10-07T13:36:21.537Z,100437.75
2022-10-07T13:38:53.556Z,100433.06
2022-10-07T13:41:27.614Z,100429.59
2022-10-07T13:44:01.543Z,100433.44
2022-10-07T13:46:34.816Z,100431.53
2022-10-07T13:49:04.981Z,100431.44
2022-10-07T13:51:36.666Z,100423.13
2022-10-07T13:54:08.752Z,100417.81
2022-10-07T13:56:41.889Z,100407.31
2022-10-07T13:59:18.358Z,100410.63
2022-10-07T14:01:51.420Z,100403.09
2022-10-07T14:04:25.005Z,100406.16
2022-10-07T14:07:01.263Z,100401.38
2022-10-07T14:09:44.153Z,100396.50
2022-10-07T14:12:18.676Z,100392.81
2022-10-07T14:14:52.232Z,100384.97
2022-10-07T14:17:28.838Z,100376.56
2022-10-07T14:20:05.699Z,100373.25
2022-10-07T14:22:38.809Z,100367.16
2022-10-07T14:25:19.231Z,100363.84
2022-10-07T14:28:10.092Z,100360.06
2022-10-07T14:31:00.031Z,100361.16
2022-10-07T14:34:02.847Z,100369.53
2022-10-07T14:36:31.325Z,100368.09
2022-10-07T14:39:04.021Z,100359.50
2022-10-07T14:41:33.919Z,100357.25
2022-10-07T14:44:04.356Z,100350.25
2022-10-07T14:46:34.557Z,100346.13
2022-10-07T14:49:02.792Z,100340.81
2022-10-07T14:51:31.400Z,100347.59
2022-10-07T14:54:05.840Z,100331.00
2022-10-07T14:56:36.639Z,100330.28
2022-10-07T14:59:05.195Z,100340.28
2022-10-07T15:01:35.259Z,100325.69
2022-10-07T15:04:03.779Z,100318.75
2022-10-07T15:06:32.505Z,100318.34
2022-10-07T15:09:01.073Z,100325.75
2022-10-07T15:11:29.650Z,100316.56
2022-10-07T15:13:58.040Z,100322.84
2022-10-07T15:16:29.448Z,100311.13
2022-10-07T15:18:59.165Z,100318.56
2022-10-07T15:21:29.324Z,100316.47
2022-10-07T15:23:58.626Z,100303.72
2022-10-07T15:26:27.103Z,100302.84
2022-10-07T15:28:58.362Z,100297.94
2022-10-07T15:31:30.044Z,100290.56
2022-10-07T15:34:00.142Z,100301.59
2022-10-07T15:36:30.451Z,100288.03
2022-10-07T15:39:02.035Z,100288.78
2022-10-07T15:41:34.527Z,100286.66
2022-10-07T15:44:04.703Z,100289.88
2022-10-07T15:46:35.103Z,100285.28
2022-10-07T15:49:05.463Z,100282.53
2022-10-07T15:51:36.381Z,100283.91
2022-10-07T15:54:06.306Z,100282.13
2022-10-07T15:56:35.620Z,100283.94
2022-10-07T15:59:04.523Z,100269.69
2022-10-07T16:01:33.091Z,100270.13
2022-10-07T16:04:05.446Z,100270.13
2022-10-07T16:06:36.973Z,100266.25
2022-10-07T16:09:07.611Z,100268.84
2022-10-07T16:11:36.103Z,100273.72
2022-10-07T16:14:04.745Z,100266.31
2022-10-07T16:16:34.726Z,100263.41
2022-10-07T16:19:04.828Z,100266.69
2022-10-07T16:21:35.300Z,100266.38
2022-10-07T16:24:06.424Z,100268.06
2022-10-07T16:26:37.429Z,100261.34
2022-10-07T16:29:26.412Z,100264.16
2022-10-07T16:31:58.895Z,100260.63
2022-10-07T16:34:29.890Z,100257.59
2022-10-07T16:36:59.345Z,100255.31
2022-10-07T16:39:27.902Z,100260.78
2022-10-07T16:41:56.770Z,100257.59
2022-10-07T16:44:25.971Z,100261.41
2022-10-07T16:46:57.097Z,100258.81
2022-10-07T16:49:27.691Z,100257.28
2022-10-07T16:51:58.737Z,100255.81
2022-10-07T16:54:29.790Z,100256.19
2022-10-07T16:56:58.576Z,100259.91
2022-10-07T16:59:27.407Z,100251.41
2022-10-07T17:02:00.122Z,100251.75
2022-10-07T17:04:28.777Z,100249.00
2022-10-07T17:06:58.380Z,100250.63
2022-10-07T17:09:26.577Z,100256.06
2022-10-07T17:11:57.261Z,100259.78
2022-10-07T17:14:26.400Z,100257.59
2022-10-07T17:16:58.447Z,100262.16
2022-10-07T17:19:29.483Z,100256.41
2022-10-07T17:22:00.917Z,100257.03
2022-10-07T17:24:30.313Z,100257.13
2022-10-07T17:26:59.050Z,100262.63
2022-10-07T17:29:29.560Z,100262.03
2022-10-07T17:31:58.010Z,100261.28
2022-10-07T17:34:26.612Z,100266.44
2022-10-07T17:36:55.802Z,100265.16
2022-10-07T17:39:25.626Z,100265.16
2022-10-07T17:41:53.924Z,100260.44
2022-10-07T17:44:22.868Z,100267.06
2022-10-07T17:46:51.350Z,100264.13
2022-10-07T17:49:19.830Z,100269.88
2022-10-07T17:51:48.251Z,100265.34
2022-10-07T17:54:16.685Z,100264.22
2022-10-07T17:56:47.502Z,100263.56
2022-10-07T17:59:16.711Z,100265.75
2022-10-07T18:01:45.577Z,100265.28
2022-10-07T18:04:22.493Z,100274.31
2022-10-07T18:06:53.104Z,100275.41
2022-10-07T18:09:22.929Z,100276.69
2022-10-07T18:12:10.326Z,100287.00
2022-10-07T18:14:56.373Z,100281.88
2022-10-07T18:17:25.331Z,100283.41
2022-10-07T18:19:53.904Z,100286.81
2022-10-07T18:22:22.328Z,100286.94
2022-10-07T18:24:52.130Z,100291.03
2022-10-07T18:27:25.147Z,100287.59
2022-10-07T18:29:53.888Z,100301.03
2022-10-07T18:32:22.886Z,100298.34
2022-10-07T18:34:51.734Z,100305.41
2022-10-07T18:37:20.033Z,100289.72
2022-10-07T18:39:48.466Z,100297.31
2022-10-07T18:42:16.956Z,100300.59
2022-10-07T18:44:47.320Z,100292.06
2022-10-07T18:47:15.860Z,100299.13
2022-10-07T18:49:44.734Z,100289.47
2022-10-07T18:52:13.319Z,100287.91
2022-10-07T18:54:41.622Z,100283.84
2022-10-07T18:57:10.009Z,100276.59
2022-10-07T18:59:38.981Z,100277.88
2022-10-07T19:02:13.560Z,100288.84
2022-10-07T19:04:44.758Z,100277.88
2022-10-07T19:07:13.530Z,100274.00
2022-10-07T19:09:42.259Z,100285.91
2022-10-07T19:12:30.646Z,100295.28
2022-10-07T19:14:57.876Z,100296.19
2022-10-07T19:17:28.152Z,100294.38
2022-10-07T19:19:57.659Z,100296.13
2022-10-07T19:22:25.957Z,100293.50
2022-10-07T19:25:11.891Z,100291.72
2022-10-07T19:27:40.209Z,100297.38
2022-10-07T19:30:11.221Z,100298.28
2022-10-07T19:32:40.823Z,100300.28
2022-10-07T19:35:10.033Z,100300.75
2022-10-07T19:37:38.777Z,100305.50
2022-10-07T19:40:09.390Z,100308.00
2022-10-07T19:42:37.957Z,100297.66
2022-10-07T19:45:09.297Z,100302.63
2022-10-07T19:47:37.668Z,100296.47
2022-10-07T19:50:08.377Z,100303.50
2022-10-07T19:52:38.210Z,100300.81
2022-10-07T19:55:08.206Z,100301.19
2022-10-07T19:57:37.403Z,100291.69
2022-10-07T20:00:07.388Z,100291.63
2022-10-07T20:02:41.208Z,100289.16
2022-10-07T20:05:11.816Z,100283.09
2022-10-07T20:07:40.109Z,100280.66
2022-10-07T20:10:09.387Z,100276.84
2022-10-07T20:12:40.191Z,100277.38
2022-10-07T20:15:13.996Z,100289.75
2022-10-07T20:17:43.787Z,100286.25
2022-10-07T20:20:14.798Z,100285.69
2022-10-07T20:22:47.194Z,100284.34
2022-10-07T20:25:18.275Z,100278.16
2022-10-07T20:27:48.575Z,100276.84
2022-10-07T20:30:18.313Z,100275.13
2022-10-07T20:32:47.299Z,100267.63
2022-10-07T20:35:17.557Z,100270.97
2022-10-07T20:37:46.189Z,100263.47
2022-10-07T20:40:32.527Z,100263.44
2022-10-07T20:43:03.725Z,100257.25
2022-10-07T20:45:54.059Z,100261.75
2022-10-07T20:48:25.620Z,100263.03
2022-10-07T20:50:56.298Z,100267.72
2022-10-07T20:53:25.087Z,100264.84
2022-10-07T20:55:53.480Z,100269.50
2022-10-07T20:58:22.480Z,100267.25
2022-10-07T21:00:50.894Z,100276.69
2022-10-07T21:03:19.311Z,100274.13
2022-10-07T21:05:47.994Z,100272.19
2022-10-07T21:08:18.457Z,100265.38
2022-10-07T21:10:47.014Z,100266.09
2022-10-07T21:13:15.592Z,100263.59
2022-10-07T21:15:43.925Z,100261.53
2022-10-07T21:18:12.286Z,100265.19
2022-10-07T21:20:56.529Z,100263.09
2022-10-07T21:23:28.535Z,100259.03
2022-10-07T21:26:01.826Z,100257.88
2022-10-07T21:28:33.925Z,100264.75
2022-10-07T21:31:02.915Z,100248.91
2022-10-07T21:33:32.576Z,100249.72
2022-10-07T21:36:01.649Z,100251.50
2022-10-07T21:38:32.331Z,100245.03
2022-10-07T21:41:01.645Z,100242.75
2022-10-07T21:43:30.442Z,100246.69
2022-10-07T21:46:00.100Z,100240.97
2022-10-07T21:48:30.123Z,100241.94
2022-10-07T21:51:02.704Z,100240.78
2022-10-07T21:53:35.549Z,100230.75
2022-10-07T21:56:04.837Z,100237.44
2022-10-07T21:58:33.530Z,100236.28
2022-10-07T22:01:05.101Z,100231.81
2022-10-07T22:03:34.051Z,100226.69
2022-10-07T22:06:03.493Z,100226.28
2022-10-07T22:08:37.071Z,100229.41
2022-10-07T22:11:11.174Z,100228.69
2022-10-07T22:13:42.204Z,100224.03
2022-10-07T22:16:14.902Z,100220.06
2022-10-07T22:18:48.141Z,100222.22
2022-10-07T22:21:20.349Z,100218.59
2022-10-07T22:23:51.839Z,100226.41
2022-10-07T22:26:24.016Z,100219.81
2022-10-07T22:28:52.749Z,100218.69
2022-10-07T22:31:22.268Z,100218.66
2022-10-07T22:33:53.915Z,100219.47
2022-10-07T22:36:23.320Z,100213.72
2022-10-07T22:38:51.745Z,100208.38
2022-10-07T22:41:22.829Z,100210.75
2022-10-07T22:43:52.256Z,100212.16
2022-10-07T22:46:26.222Z,100210.72
2022-10-07T22:48:56.422Z,100208.19
2022-10-07T22:51:28.408Z,100204.22
2022-10-07T22:53:58.178Z,100202.47
2022-10-07T22:56:29.997Z,100200.25
2022-10-07T22:59:00.619Z,100209.34
2022-10-07T23:01:31.169Z,100198.25
2022-10-07T23:04:03.275Z,100204.19
2022-10-07T23:06:33.708Z,100210.50
2022-10-07T23:09:02.376Z,100196.03
2022-10-07T23:11:32.811Z,100200.97
2022-10-07T23:14:01.185Z,100196.16
2022-10-07T23:16:32.347Z,100195.31
2022-10-07T23:19:00.944Z,100200.25
2022-10-07T23:21:34.140Z,100194.13
2022-10-07T23:24:07.197Z,100194.13
2022-10-07T23:26:38.475Z,100187.16
2022-10-07T23:29:08.587Z,100192.13
2022-10-07T23:31:36.969Z,100193.06
2022-10-07T23:34:06.680Z,100197.91
2022-10-07T23:36:36.825Z,100198.13
2022-10-07T23:39:05.529Z,100187.50
2022-10-07T23:41:34.411Z,100184.88
2022-10-07T23:44:04.831Z,100183.75
2022-10-07T23:46:36.260Z,100184.03
2022-10-07T23:49:05.952Z,100180.59
2022-10-07T23:51:35.164Z,100184.41
2022-10-07T23:54:05.887Z,100184.66
2022-10-07T23:56:34.504Z,100184.66
2022-10-07T23:59:04.692Z,100179.44
